sensor_id;sensor_type;location;lat;lon;timestamp;P1;durP1;ratioP1;P2;durP2;ratioP2
49131;SDS011;35149;51.196;6.204;2022-08-02T00:01:01;2.53;;;1.40;;
49131;SDS011;35149;51.196;6.204;2022-08-02T00:03:32;1.88;;;1.40;;
49131;SDS011;35149;51.196;6.204;2022-08-02T00:06:02;2.17;;;1.48;;
49131;SDS011;35149;51.196;6.204;2022-08-02T00:08:29;2.08;;;1.40;;
49131;SDS011;35149;51.196;6.204;2022-08-02T00:10:56;2.25;;;1.23;;
49131;SDS011;35149;51.196;6.204;2022-08-02T00:13:23;1.90;;;1.55;;
49131;SDS011;35149;51.196;6.204;2022-08-02T00:15:50;1.67;;;1.38;;
49131;SDS011;35149;51.196;6.204;2022-08-02T00:18:22;2.20;;;2.00;;
49131;SDS011;35149;51.196;6.204;2022-08-02T00:20:49;1.42;;;1.33;;
49131;SDS011;35149;51.196;6.204;2022-08-02T00:23:17;1.75;;;1.65;;
49131;SDS011;35149;51.196;6.204;2022-08-02T00:25:44;1.83;;;1.20;;
49131;SDS011;35149;51.196;6.204;2022-08-02T00:28:21;1.30;;;1.20;;
49131;SDS011;35149;51.196;6.204;2022-08-02T00:33:21;1.30;;;1.20;;
49131;SDS011;35149;51.196;6.204;2022-08-02T00:36:14;0.90;;;0.90;;
49131;SDS011;35149;51.196;6.204;2022-08-02T00:38:41;1.85;;;1.35;;
49131;SDS011;35149;51.196;6.204;2022-08-02T00:41:13;1.35;;;1.30;;
49131;SDS011;35149;51.196;6.204;2022-08-02T00:43:45;1.48;;;1.38;;
49131;SDS011;35149;51.196;6.204;2022-08-02T00:46:16;1.65;;;1.30;;
49131;SDS011;35149;51.196;6.204;2022-08-02T00:48:45;2.13;;;1.55;;
49131;SDS011;35149;51.196;6.204;2022-08-02T00:51:11;2.15;;;1.45;;
49131;SDS011;35149;51.196;6.204;2022-08-02T00:53:39;1.95;;;1.40;;
49131;SDS011;35149;51.196;6.204;2022-08-02T00:56:07;2.63;;;1.42;;
49131;SDS011;35149;51.196;6.204;2022-08-02T00:58:37;1.85;;;1.40;;
49131;SDS011;35149;51.196;6.204;2022-08-02T01:01:06;1.27;;;1.17;;
49131;SDS011;35149;51.196;6.204;2022-08-02T01:03:33;1.77;;;1.58;;
49131;SDS011;35149;51.196;6.204;2022-08-02T01:06:05;3.08;;;1.30;;
49131;SDS011;35149;51.196;6.204;2022-08-02T01:08:39;2.20;;;1.35;;
49131;SDS011;35149;51.196;6.204;2022-08-02T01:11:09;1.88;;;1.55;;
49131;SDS011;35149;51.196;6.204;2022-08-02T01:13:37;2.35;;;1.23;;
49131;SDS011;35149;51.196;6.204;2022-08-02T01:16:09;1.52;;;1.42;;
49131;SDS011;35149;51.196;6.204;2022-08-02T01:18:44;2.60;;;1.50;;
49131;SDS011;35149;51.196;6.204;2022-08-02T01:21:30;1.15;;;1.05;;
49131;SDS011;35149;51.196;6.204;2022-08-02T01:29:35;1.90;;;1.80;;
49131;SDS011;35149;51.196;6.204;2022-08-02T01:32:12;1.67;;;1.58;;
49131;SDS011;35149;51.196;6.204;2022-08-02T01:34:58;4.05;;;1.65;;
49131;SDS011;35149;51.196;6.204;2022-08-02T01:40:20;1.60;;;1.50;;
49131;SDS011;35149;51.196;6.204;2022-08-02T01:42:54;1.63;;;1.52;;
49131;SDS011;35149;51.196;6.204;2022-08-02T01:45:24;2.65;;;1.33;;
49131;SDS011;35149;51.196;6.204;2022-08-02T01:47:56;4.90;;;1.77;;
49131;SDS011;35149;51.196;6.204;2022-08-02T01:50:29;1.60;;;1.50;;
49131;SDS011;35149;51.196;6.204;2022-08-02T01:52:59;2.03;;;1.45;;
49131;SDS011;35149;51.196;6.204;2022-08-02T01:55:31;3.35;;;2.53;;
49131;SDS011;35149;51.196;6.204;2022-08-02T01:58:24;2.17;;;1.60;;
49131;SDS011;35149;51.196;6.204;2022-08-02T02:00:58;2.65;;;1.77;;
49131;SDS011;35149;51.196;6.204;2022-08-02T02:03:26;2.53;;;1.40;;
49131;SDS011;35149;51.196;6.204;2022-08-02T02:05:59;1.75;;;1.40;;
49131;SDS011;35149;51.196;6.204;2022-08-02T02:08:35;1.25;;;1.15;;
49131;SDS011;35149;51.196;6.204;2022-08-02T02:11:05;1.42;;;1.33;;
49131;SDS011;35149;51.196;6.204;2022-08-02T02:13:52;3.72;;;1.60;;
49131;SDS011;35149;51.196;6.204;2022-08-02T02:16:25;2.15;;;1.60;;
49131;SDS011;35149;51.196;6.204;2022-08-02T02:18:53;1.27;;;1.20;;
49131;SDS011;35149;51.196;6.204;2022-08-02T02:21:20;2.15;;;1.40;;
49131;SDS011;35149;51.196;6.204;2022-08-02T02:23:47;4.07;;;1.90;;
49131;SDS011;35149;51.196;6.204;2022-08-02T02:26:19;2.30;;;1.65;;
49131;SDS011;35149;51.196;6.204;2022-08-02T02:28:57;1.77;;;1.42;;
49131;SDS011;35149;51.196;6.204;2022-08-02T02:31:27;2.92;;;2.00;;
49131;SDS011;35149;51.196;6.204;2022-08-02T02:34:01;2.80;;;1.65;;
49131;SDS011;35149;51.196;6.204;2022-08-02T02:36:51;1.60;;;1.50;;
49131;SDS011;35149;51.196;6.204;2022-08-02T02:39:19;1.70;;;1.60;;
49131;SDS011;35149;51.196;6.204;2022-08-02T02:41:55;1.60;;;1.50;;
49131;SDS011;35149;51.196;6.204;2022-08-02T02:44:26;2.45;;;1.52;;
49131;SDS011;35149;51.196;6.204;2022-08-02T02:46:54;1.85;;;1.50;;
49131;SDS011;35149;51.196;6.204;2022-08-02T02:49:22;2.78;;;1.92;;
49131;SDS011;35149;51.196;6.204;2022-08-02T02:51:53;4.38;;;1.65;;
49131;SDS011;35149;51.196;6.204;2022-08-02T02:54:24;2.03;;;1.75;;
49131;SDS011;35149;51.196;6.204;2022-08-02T02:57:00;3.00;;;1.60;;
49131;SDS011;35149;51.196;6.204;2022-08-02T02:59:27;2.58;;;1.55;;
49131;SDS011;35149;51.196;6.204;2022-08-02T03:01:57;1.73;;;1.60;;
49131;SDS011;35149;51.196;6.204;2022-08-02T03:04:31;2.65;;;1.55;;
49131;SDS011;35149;51.196;6.204;2022-08-02T03:07:19;1.85;;;1.65;;
49131;SDS011;35149;51.196;6.204;2022-08-02T03:09:50;3.03;;;1.92;;
49131;SDS011;35149;51.196;6.204;2022-08-02T03:12:20;3.33;;;1.92;;
49131;SDS011;35149;51.196;6.204;2022-08-02T03:14:56;2.85;;;1.65;;
49131;SDS011;35149;51.196;6.204;2022-08-02T03:17:24;2.38;;;1.60;;
49131;SDS011;35149;51.196;6.204;2022-08-02T03:19:51;2.35;;;1.50;;
49131;SDS011;35149;51.196;6.204;2022-08-02T03:22:18;4.50;;;2.00;;
49131;SDS011;35149;51.196;6.204;2022-08-02T03:24:54;4.45;;;2.00;;
49131;SDS011;35149;51.196;6.204;2022-08-02T03:27:37;3.13;;;2.00;;
49131;SDS011;35149;51.196;6.204;2022-08-02T03:30:05;2.15;;;1.88;;
49131;SDS011;35149;51.196;6.204;2022-08-02T03:32:34;1.52;;;1.35;;
49131;SDS011;35149;51.196;6.204;2022-08-02T03:35:04;1.95;;;1.60;;
49131;SDS011;35149;51.196;6.204;2022-08-02T03:37:35;1.92;;;1.70;;
49131;SDS011;35149;51.196;6.204;2022-08-02T03:40:06;3.72;;;1.70;;
49131;SDS011;35149;51.196;6.204;2022-08-02T03:42:34;2.88;;;1.75;;
49131;SDS011;35149;51.196;6.204;2022-08-02T03:45:13;3.22;;;1.90;;
49131;SDS011;35149;51.196;6.204;2022-08-02T03:47:40;2.03;;;1.83;;
49131;SDS011;35149;51.196;6.204;2022-08-02T03:50:10;3.10;;;1.83;;
49131;SDS011;35149;51.196;6.204;2022-08-02T03:52:40;2.25;;;2.05;;
49131;SDS011;35149;51.196;6.204;2022-08-02T03:55:11;3.08;;;2.00;;
49131;SDS011;35149;51.196;6.204;2022-08-02T03:57:41;2.10;;;1.88;;
49131;SDS011;35149;51.196;6.204;2022-08-02T04:00:11;2.00;;;1.70;;
49131;SDS011;35149;51.196;6.204;2022-08-02T04:02:43;2.60;;;1.80;;
49131;SDS011;35149;51.196;6.204;2022-08-02T04:05:12;1.95;;;1.75;;
49131;SDS011;35149;51.196;6.204;2022-08-02T04:07:39;3.53;;;1.98;;
49131;SDS011;35149;51.196;6.204;2022-08-02T04:10:26;2.78;;;1.92;;
49131;SDS011;35149;51.196;6.204;2022-08-02T04:12:53;2.90;;;2.28;;
49131;SDS011;35149;51.196;6.204;2022-08-02T04:15:20;2.35;;;2.10;;
49131;SDS011;35149;51.196;6.204;2022-08-02T04:17:53;3.80;;;2.60;;
49131;SDS011;35149;51.196;6.204;2022-08-02T04:20:23;3.50;;;2.22;;
49131;SDS011;35149;51.196;6.204;2022-08-02T04:22:57;2.22;;;1.95;;
49131;SDS011;35149;51.196;6.204;2022-08-02T04:25:30;3.17;;;2.37;;
49131;SDS011;35149;51.196;6.204;2022-08-02T04:28:06;2.33;;;2.13;;
49131;SDS011;35149;51.196;6.204;2022-08-02T04:30:46;2.83;;;2.42;;
49131;SDS011;35149;51.196;6.204;2022-08-02T04:33:19;3.78;;;2.63;;
49131;SDS011;35149;51.196;6.204;2022-08-02T04:35:46;2.97;;;2.42;;
49131;SDS011;35149;51.196;6.204;2022-08-02T04:38:13;3.97;;;2.45;;
49131;SDS011;35149;51.196;6.204;2022-08-02T04:40:48;3.45;;;2.30;;
49131;SDS011;35149;51.196;6.204;2022-08-02T04:43:20;2.42;;;2.22;;
49131;SDS011;35149;51.196;6.204;2022-08-02T04:45:51;4.35;;;2.58;;
49131;SDS011;35149;51.196;6.204;2022-08-02T04:48:19;2.78;;;2.58;;
49131;SDS011;35149;51.196;6.204;2022-08-02T04:50:47;4.03;;;2.22;;
49131;SDS011;35149;51.196;6.204;2022-08-02T04:53:14;2.80;;;2.30;;
49131;SDS011;35149;51.196;6.204;2022-08-02T04:55:41;3.58;;;2.80;;
49131;SDS011;35149;51.196;6.204;2022-08-02T04:58:07;3.85;;;2.38;;
49131;SDS011;35149;51.196;6.204;2022-08-02T05:00:54;3.83;;;2.28;;
49131;SDS011;35149;51.196;6.204;2022-08-02T05:03:21;3.50;;;3.05;;
49131;SDS011;35149;51.196;6.204;2022-08-02T05:05:48;3.42;;;3.13;;
49131;SDS011;35149;51.196;6.204;2022-08-02T05:08:14;3.90;;;2.83;;
49131;SDS011;35149;51.196;6.204;2022-08-02T05:10:41;6.72;;;3.50;;
49131;SDS011;35149;51.196;6.204;2022-08-02T05:13:08;3.85;;;2.58;;
49131;SDS011;35149;51.196;6.204;2022-08-02T05:15:35;2.85;;;2.65;;
49131;SDS011;35149;51.196;6.204;2022-08-02T05:18:01;3.35;;;3.05;;
49131;SDS011;35149;51.196;6.204;2022-08-02T05:20:28;5.60;;;3.00;;
49131;SDS011;35149;51.196;6.204;2022-08-02T05:22:55;3.70;;;2.85;;
49131;SDS011;35149;51.196;6.204;2022-08-02T05:25:22;3.55;;;2.65;;
49131;SDS011;35149;51.196;6.204;2022-08-02T05:27:48;3.22;;;2.92;;
49131;SDS011;35149;51.196;6.204;2022-08-02T05:30:15;3.70;;;2.72;;
49131;SDS011;35149;51.196;6.204;2022-08-02T05:32:48;3.53;;;3.05;;
49131;SDS011;35149;51.196;6.204;2022-08-02T05:35:21;3.53;;;2.80;;
49131;SDS011;35149;51.196;6.204;2022-08-02T05:37:50;5.60;;;3.45;;
49131;SDS011;35149;51.196;6.204;2022-08-02T05:40:17;4.85;;;3.17;;
49131;SDS011;35149;51.196;6.204;2022-08-02T05:42:51;7.15;;;4.07;;
49131;SDS011;35149;51.196;6.204;2022-08-02T05:45:18;4.15;;;3.53;;
49131;SDS011;35149;51.196;6.204;2022-08-02T05:47:45;5.63;;;3.15;;
49131;SDS011;35149;51.196;6.204;2022-08-02T05:50:12;3.78;;;3.47;;
49131;SDS011;35149;51.196;6.204;2022-08-02T05:55:15;4.38;;;3.33;;
49131;SDS011;35149;51.196;6.204;2022-08-02T06:00:21;4.10;;;3.70;;
49131;SDS011;35149;51.196;6.204;2022-08-02T06:05:52;4.68;;;3.60;;
49131;SDS011;35149;51.196;6.204;2022-08-02T06:08:31;4.63;;;3.25;;
49131;SDS011;35149;51.196;6.204;2022-08-02T06:11:03;4.43;;;3.70;;
49131;SDS011;35149;51.196;6.204;2022-08-02T06:13:31;3.92;;;3.33;;
49131;SDS011;35149;51.196;6.204;2022-08-02T06:15:59;4.85;;;3.38;;
49131;SDS011;35149;51.196;6.204;2022-08-02T06:18:27;5.25;;;3.08;;
49131;SDS011;35149;51.196;6.204;2022-08-02T06:20:56;4.28;;;2.97;;
49131;SDS011;35149;51.196;6.204;2022-08-02T06:23:46;5.95;;;3.10;;
49131;SDS011;35149;51.196;6.204;2022-08-02T06:26:25;4.55;;;3.67;;
49131;SDS011;35149;51.196;6.204;2022-08-02T06:28:54;5.70;;;2.65;;
49131;SDS011;35149;51.196;6.204;2022-08-02T06:31:22;5.10;;;2.67;;
49131;SDS011;35149;51.196;6.204;2022-08-02T06:33:49;5.60;;;3.25;;
49131;SDS011;35149;51.196;6.204;2022-08-02T06:36:37;3.90;;;2.80;;
49131;SDS011;35149;51.196;6.204;2022-08-02T06:40:00;3.33;;;3.03;;
49131;SDS011;35149;51.196;6.204;2022-08-02T06:42:10;3.15;;;2.92;;
49131;SDS011;35149;51.196;6.204;2022-08-02T06:44:44;4.38;;;2.85;;
49131;SDS011;35149;51.196;6.204;2022-08-02T06:47:16;3.15;;;2.90;;
49131;SDS011;35149;51.196;6.204;2022-08-02T06:49:43;3.13;;;2.92;;
49131;SDS011;35149;51.196;6.204;2022-08-02T06:52:26;2.72;;;2.53;;
49131;SDS011;35149;51.196;6.204;2022-08-02T06:54:56;2.72;;;2.53;;
49131;SDS011;35149;51.196;6.204;2022-08-02T06:57:24;4.88;;;2.80;;
49131;SDS011;35149;51.196;6.204;2022-08-02T06:59:52;3.42;;;2.85;;
49131;SDS011;35149;51.196;6.204;2022-08-02T07:02:21;2.75;;;2.55;;
49131;SDS011;35149;51.196;6.204;2022-08-02T07:04:48;4.22;;;3.42;;
49131;SDS011;35149;51.196;6.204;2022-08-02T07:07:15;2.83;;;2.63;;
49131;SDS011;35149;51.196;6.204;2022-08-02T07:09:41;3.28;;;2.90;;
49131;SDS011;35149;51.196;6.204;2022-08-02T07:12:27;3.15;;;2.50;;
49131;SDS011;35149;51.196;6.204;2022-08-02T07:14:56;3.85;;;3.45;;
49131;SDS011;35149;51.196;6.204;2022-08-02T07:17:23;3.20;;;2.90;;
49131;SDS011;35149;51.196;6.204;2022-08-02T07:19:50;4.65;;;3.13;;
49131;SDS011;35149;51.196;6.204;2022-08-02T07:22:17;4.35;;;2.92;;
49131;SDS011;35149;51.196;6.204;2022-08-02T07:24:48;4.93;;;3.45;;
49131;SDS011;35149;51.196;6.204;2022-08-02T07:27:15;4.22;;;3.50;;
49131;SDS011;35149;51.196;6.204;2022-08-02T07:29:42;4.80;;;3.08;;
49131;SDS011;35149;51.196;6.204;2022-08-02T07:32:13;6.13;;;3.38;;
49131;SDS011;35149;51.196;6.204;2022-08-02T07:34:41;4.47;;;3.60;;
49131;SDS011;35149;51.196;6.204;2022-08-02T07:37:16;4.35;;;3.53;;
49131;SDS011;35149;51.196;6.204;2022-08-02T07:40:04;5.50;;;3.60;;
49131;SDS011;35149;51.196;6.204;2022-08-02T07:42:41;6.85;;;3.45;;
49131;SDS011;35149;51.196;6.204;2022-08-02T07:45:09;4.43;;;3.20;;
49131;SDS011;35149;51.196;6.204;2022-08-02T07:47:36;5.72;;;4.00;;
49131;SDS011;35149;51.196;6.204;2022-08-02T07:50:07;7.47;;;4.13;;
49131;SDS011;35149;51.196;6.204;2022-08-02T07:52:34;3.78;;;3.47;;
49131;SDS011;35149;51.196;6.204;2022-08-02T07:55:01;5.00;;;3.45;;
49131;SDS011;35149;51.196;6.204;2022-08-02T07:57:29;4.10;;;3.42;;
49131;SDS011;35149;51.196;6.204;2022-08-02T07:59:56;4.70;;;3.63;;
49131;SDS011;35149;51.196;6.204;2022-08-02T08:02:22;5.30;;;3.20;;
49131;SDS011;35149;51.196;6.204;2022-08-02T08:04:52;3.90;;;3.53;;
49131;SDS011;35149;51.196;6.204;2022-08-02T08:07:19;4.32;;;3.40;;
49131;SDS011;35149;51.196;6.204;2022-08-02T08:09:46;4.10;;;3.70;;
49131;SDS011;35149;51.196;6.204;2022-08-02T08:12:18;4.10;;;3.70;;
49131;SDS011;35149;51.196;6.204;2022-08-02T08:14:46;3.38;;;3.00;;
49131;SDS011;35149;51.196;6.204;2022-08-02T08:17:13;4.18;;;3.60;;
49131;SDS011;35149;51.196;6.204;2022-08-02T08:19:39;4.30;;;3.38;;
49131;SDS011;35149;51.196;6.204;2022-08-02T08:22:16;4.50;;;3.30;;
49131;SDS011;35149;51.196;6.204;2022-08-02T08:24:44;5.45;;;4.15;;
49131;SDS011;35149;51.196;6.204;2022-08-02T08:27:10;3.60;;;3.38;;
49131;SDS011;35149;51.196;6.204;2022-08-02T08:29:42;4.22;;;3.60;;
49131;SDS011;35149;51.196;6.204;2022-08-02T08:32:10;7.93;;;3.08;;
49131;SDS011;35149;51.196;6.204;2022-08-02T08:34:44;4.72;;;3.88;;
49131;SDS011;35149;51.196;6.204;2022-08-02T08:37:11;5.30;;;3.20;;
49131;SDS011;35149;51.196;6.204;2022-08-02T08:42:24;3.97;;;3.22;;
49131;SDS011;35149;51.196;6.204;2022-08-02T08:47:34;4.30;;;3.60;;
49131;SDS011;35149;51.196;6.204;2022-08-02T08:50:03;4.07;;;3.67;;
49131;SDS011;35149;51.196;6.204;2022-08-02T08:52:35;3.92;;;3.20;;
49131;SDS011;35149;51.196;6.204;2022-08-02T08:55:08;3.50;;;3.20;;
49131;SDS011;35149;51.196;6.204;2022-08-02T08:57:41;4.10;;;2.90;;
49131;SDS011;35149;51.196;6.204;2022-08-02T09:00:09;5.25;;;3.30;;
49131;SDS011;35149;51.196;6.204;2022-08-02T09:02:42;4.70;;;2.85;;
49131;SDS011;35149;51.196;6.204;2022-08-02T09:05:09;3.38;;;2.70;;
49131;SDS011;35149;51.196;6.204;2022-08-02T09:07:37;2.92;;;2.72;;
49131;SDS011;35149;51.196;6.204;2022-08-02T09:15:59;4.13;;;2.70;;
49131;SDS011;35149;51.196;6.204;2022-08-02T09:18:39;3.28;;;2.78;;
49131;SDS011;35149;51.196;6.204;2022-08-02T09:21:10;3.13;;;2.92;;
49131;SDS011;35149;51.196;6.204;2022-08-02T09:26:06;2.85;;;2.65;;
49131;SDS011;35149;51.196;6.204;2022-08-02T09:28:35;4.85;;;2.75;;
49131;SDS011;35149;51.196;6.204;2022-08-02T09:31:04;2.63;;;2.42;;
49131;SDS011;35149;51.196;6.204;2022-08-02T09:36:04;2.83;;;2.38;;
49131;SDS011;35149;51.196;6.204;2022-08-02T09:38:39;3.35;;;2.70;;
49131;SDS011;35149;51.196;6.204;2022-08-02T09:41:19;3.30;;;3.10;;
49131;SDS011;35149;51.196;6.204;2022-08-02T09:43:51;4.45;;;2.63;;
49131;SDS011;35149;51.196;6.204;2022-08-02T09:49:14;2.72;;;2.58;;
49131;SDS011;35149;51.196;6.204;2022-08-02T09:54:27;1.95;;;1.85;;
49131;SDS011;35149;51.196;6.204;2022-08-02T09:56:55;4.50;;;2.20;;
49131;SDS011;35149;51.196;6.204;2022-08-02T09:59:23;2.20;;;2.00;;
49131;SDS011;35149;51.196;6.204;2022-08-02T10:01:51;2.53;;;2.33;;
49131;SDS011;35149;51.196;6.204;2022-08-02T10:04:29;2.30;;;2.13;;
49131;SDS011;35149;51.196;6.204;2022-08-02T10:06:59;3.55;;;2.17;;
49131;SDS011;35149;51.196;6.204;2022-08-02T10:09:30;2.22;;;2.00;;
49131;SDS011;35149;51.196;6.204;2022-08-02T10:11:57;3.78;;;3.25;;
49131;SDS011;35149;51.196;6.204;2022-08-02T10:14:26;2.72;;;2.20;;
49131;SDS011;35149;51.196;6.204;2022-08-02T10:16:55;2.13;;;1.92;;
49131;SDS011;35149;51.196;6.204;2022-08-02T10:19:23;3.65;;;2.17;;
49131;SDS011;35149;51.196;6.204;2022-08-02T10:22:11;3.33;;;1.83;;
49131;SDS011;35149;51.196;6.204;2022-08-02T10:24:40;2.85;;;2.13;;
49131;SDS011;35149;51.196;6.204;2022-08-02T10:27:17;2.58;;;2.22;;
49131;SDS011;35149;51.196;6.204;2022-08-02T10:29:46;2.22;;;2.00;;
49131;SDS011;35149;51.196;6.204;2022-08-02T10:32:22;3.95;;;1.98;;
49131;SDS011;35149;51.196;6.204;2022-08-02T10:35:17;2.30;;;1.77;;
49131;SDS011;35149;51.196;6.204;2022-08-02T10:37:59;3.00;;;1.73;;
49131;SDS011;35149;51.196;6.204;2022-08-02T10:54:22;1.77;;;1.67;;
49131;SDS011;35149;51.196;6.204;2022-08-02T10:56:51;2.90;;;1.80;;
49131;SDS011;35149;51.196;6.204;2022-08-02T10:59:28;2.00;;;1.90;;
49131;SDS011;35149;51.196;6.204;2022-08-02T11:01:55;2.28;;;1.80;;
49131;SDS011;35149;51.196;6.204;2022-08-02T11:04:27;2.03;;;1.55;;
49131;SDS011;35149;51.196;6.204;2022-08-02T11:07:13;2.22;;;1.52;;
49131;SDS011;35149;51.196;6.204;2022-08-02T11:09:43;1.40;;;1.30;;
49131;SDS011;35149;51.196;6.204;2022-08-02T11:12:11;1.60;;;1.33;;
49131;SDS011;35149;51.196;6.204;2022-08-02T11:14:42;1.65;;;1.55;;
49131;SDS011;35149;51.196;6.204;2022-08-02T11:17:11;3.97;;;2.05;;
49131;SDS011;35149;51.196;6.204;2022-08-02T11:22:33;1.90;;;1.80;;
49131;SDS011;35149;51.196;6.204;2022-08-02T11:25:43;3.17;;;1.60;;
49131;SDS011;35149;51.196;6.204;2022-08-02T11:28:09;1.48;;;1.38;;
49131;SDS011;35149;51.196;6.204;2022-08-02T11:30:37;1.80;;;1.70;;
49131;SDS011;35149;51.196;6.204;2022-08-02T11:33:04;1.85;;;1.65;;
49131;SDS011;35149;51.196;6.204;2022-08-02T11:35:32;1.40;;;1.30;;
49131;SDS011;35149;51.196;6.204;2022-08-02T11:38:17;2.72;;;1.33;;
49131;SDS011;35149;51.196;6.204;2022-08-02T11:40:45;1.20;;;1.10;;
49131;SDS011;35149;51.196;6.204;2022-08-02T11:43:17;1.27;;;1.17;;
49131;SDS011;35149;51.196;6.204;2022-08-02T11:45:45;1.35;;;1.20;;
49131;SDS011;35149;51.196;6.204;2022-08-02T11:48:13;2.10;;;1.30;;
49131;SDS011;35149;51.196;6.204;2022-08-02T11:51:07;1.73;;;1.40;;
49131;SDS011;35149;51.196;6.204;2022-08-02T11:56:16;2.85;;;1.50;;
49131;SDS011;35149;51.196;6.204;2022-08-02T11:59:03;2.00;;;1.80;;
49131;SDS011;35149;51.196;6.204;2022-08-02T12:01:35;2.70;;;1.92;;
49131;SDS011;35149;51.196;6.204;2022-08-02T12:04:14;2.72;;;1.92;;
49131;SDS011;35149;51.196;6.204;2022-08-02T12:06:43;1.88;;;1.33;;
49131;SDS011;35149;51.196;6.204;2022-08-02T12:09:21;3.47;;;1.63;;
49131;SDS011;35149;51.196;6.204;2022-08-02T12:11:48;1.75;;;1.63;;
49131;SDS011;35149;51.196;6.204;2022-08-02T12:14:16;1.75;;;1.60;;
49131;SDS011;35149;51.196;6.204;2022-08-02T12:16:43;1.60;;;1.50;;
49131;SDS011;35149;51.196;6.204;2022-08-02T12:19:28;1.60;;;1.50;;
49131;SDS011;35149;51.196;6.204;2022-08-02T12:24:52;1.90;;;1.50;;
49131;SDS011;35149;51.196;6.204;2022-08-02T12:27:27;1.95;;;1.73;;
49131;SDS011;35149;51.196;6.204;2022-08-02T12:30:06;1.80;;;1.70;;
49131;SDS011;35149;51.196;6.204;2022-08-02T12:32:35;1.65;;;1.55;;
49131;SDS011;35149;51.196;6.204;2022-08-02T12:37:35;1.65;;;1.55;;
49131;SDS011;35149;51.196;6.204;2022-08-02T12:42:55;1.30;;;1.27;;
49131;SDS011;35149;51.196;6.204;2022-08-02T12:48:35;1.63;;;1.52;;
49131;SDS011;35149;51.196;6.204;2022-08-02T12:51:26;4.05;;;1.52;;
49131;SDS011;35149;51.196;6.204;2022-08-02T12:54:25;1.88;;;1.77;;
49131;SDS011;35149;51.196;6.204;2022-08-02T12:57:10;2.55;;;1.17;;
49131;SDS011;35149;51.196;6.204;2022-08-02T12:59:39;1.33;;;1.20;;
49131;SDS011;35149;51.196;6.204;2022-08-02T13:02:08;1.40;;;1.27;;
49131;SDS011;35149;51.196;6.204;2022-08-02T13:04:37;1.05;;;0.90;;
49131;SDS011;35149;51.196;6.204;2022-08-02T13:07:16;2.05;;;0.90;;
49131;SDS011;35149;51.196;6.204;2022-08-02T13:09:47;1.10;;;1.02;;
49131;SDS011;35149;51.196;6.204;2022-08-02T13:12:15;0.90;;;0.85;;
49131;SDS011;35149;51.196;6.204;2022-08-02T13:14:42;1.05;;;1.00;;
49131;SDS011;35149;51.196;6.204;2022-08-02T13:17:10;2.90;;;1.40;;
49131;SDS011;35149;51.196;6.204;2022-08-02T13:19:37;1.20;;;1.00;;
49131;SDS011;35149;51.196;6.204;2022-08-02T13:22:04;1.00;;;1.00;;
49131;SDS011;35149;51.196;6.204;2022-08-02T13:24:36;2.40;;;1.02;;
49131;SDS011;35149;51.196;6.204;2022-08-02T13:27:22;1.40;;;1.20;;
49131;SDS011;35149;51.196;6.204;2022-08-02T13:29:50;2.25;;;1.25;;
49131;SDS011;35149;51.196;6.204;2022-08-02T13:32:18;1.02;;;1.00;;
49131;SDS011;35149;51.196;6.204;2022-08-02T13:34:46;2.22;;;1.08;;
49131;SDS011;35149;51.196;6.204;2022-08-02T13:37:14;1.58;;;1.20;;
49131;SDS011;35149;51.196;6.204;2022-08-02T13:39:42;1.05;;;0.95;;
49131;SDS011;35149;51.196;6.204;2022-08-02T13:42:28;5.05;;;2.63;;
49131;SDS011;35149;51.196;6.204;2022-08-02T13:44:55;3.20;;;1.00;;
49131;SDS011;35149;51.196;6.204;2022-08-02T13:47:22;2.15;;;1.00;;
49131;SDS011;35149;51.196;6.204;2022-08-02T13:50:01;1.85;;;1.02;;
49131;SDS011;35149;51.196;6.204;2022-08-02T13:52:28;3.70;;;1.05;;
49131;SDS011;35149;51.196;6.204;2022-08-02T13:54:55;2.05;;;1.20;;
49131;SDS011;35149;51.196;6.204;2022-08-02T13:57:21;1.17;;;1.05;;
49131;SDS011;35149;51.196;6.204;2022-08-02T13:59:48;1.10;;;1.00;;
49131;SDS011;35149;51.196;6.204;2022-08-02T14:02:24;1.15;;;1.08;;
49131;SDS011;35149;51.196;6.204;2022-08-02T14:04:52;0.93;;;0.65;;
49131;SDS011;35149;51.196;6.204;2022-08-02T14:07:19;1.23;;;0.80;;
49131;SDS011;35149;51.196;6.204;2022-08-02T14:09:46;1.08;;;0.95;;
49131;SDS011;35149;51.196;6.204;2022-08-02T14:12:15;1.23;;;0.77;;
49131;SDS011;35149;51.196;6.204;2022-08-02T14:14:42;3.13;;;0.90;;
49131;SDS011;35149;51.196;6.204;2022-08-02T14:17:12;0.70;;;0.70;;
49131;SDS011;35149;51.196;6.204;2022-08-02T14:19:38;2.65;;;0.80;;
49131;SDS011;35149;51.196;6.204;2022-08-02T14:22:08;1.30;;;0.60;;
49131;SDS011;35149;51.196;6.204;2022-08-02T14:24:37;2.47;;;0.68;;
49131;SDS011;35149;51.196;6.204;2022-08-02T14:27:07;0.90;;;0.90;;
49131;SDS011;35149;51.196;6.204;2022-08-02T14:29:34;2.08;;;0.90;;
49131;SDS011;35149;51.196;6.204;2022-08-02T14:32:03;1.42;;;0.63;;
49131;SDS011;35149;51.196;6.204;2022-08-02T14:34:30;1.13;;;0.55;;
49131;SDS011;35149;51.196;6.204;2022-08-02T14:36:59;1.20;;;0.70;;
49131;SDS011;35149;51.196;6.204;2022-08-02T14:39:26;0.70;;;0.70;;
49131;SDS011;35149;51.196;6.204;2022-08-02T14:42:08;1.25;;;0.77;;
49131;SDS011;35149;51.196;6.204;2022-08-02T14:44:37;4.70;;;1.08;;
49131;SDS011;35149;51.196;6.204;2022-08-02T14:47:06;1.13;;;0.80;;
49131;SDS011;35149;51.196;6.204;2022-08-02T14:49:35;1.30;;;0.87;;
49131;SDS011;35149;51.196;6.204;2022-08-02T14:52:07;1.48;;;0.50;;
49131;SDS011;35149;51.196;6.204;2022-08-02T14:54:34;1.10;;;0.88;;
49131;SDS011;35149;51.196;6.204;2022-08-02T14:57:03;0.50;;;0.50;;
49131;SDS011;35149;51.196;6.204;2022-08-02T14:59:30;2.17;;;0.52;;
49131;SDS011;35149;51.196;6.204;2022-08-02T15:01:57;3.67;;;0.60;;
49131;SDS011;35149;51.196;6.204;2022-08-02T15:04:24;2.03;;;0.88;;
49131;SDS011;35149;51.196;6.204;2022-08-02T15:06:51;0.93;;;0.50;;
49131;SDS011;35149;51.196;6.204;2022-08-02T15:09:19;0.85;;;0.50;;
49131;SDS011;35149;51.196;6.204;2022-08-02T15:11:46;0.93;;;0.57;;
49131;SDS011;35149;51.196;6.204;2022-08-02T15:14:15;1.38;;;0.50;;
49131;SDS011;35149;51.196;6.204;2022-08-02T15:16:54;0.60;;;0.60;;
49131;SDS011;35149;51.196;6.204;2022-08-02T15:19:24;2.80;;;0.60;;
49131;SDS011;35149;51.196;6.204;2022-08-02T15:22:15;1.63;;;0.68;;
49131;SDS011;35149;51.196;6.204;2022-08-02T15:24:45;1.50;;;0.60;;
49131;SDS011;35149;51.196;6.204;2022-08-02T15:27:15;1.70;;;0.33;;
49131;SDS011;35149;51.196;6.204;2022-08-02T15:29:42;1.25;;;0.40;;
49131;SDS011;35149;51.196;6.204;2022-08-02T15:32:10;2.25;;;0.50;;
49131;SDS011;35149;51.196;6.204;2022-08-02T15:34:40;0.50;;;0.50;;
49131;SDS011;35149;51.196;6.204;2022-08-02T15:37:07;5.72;;;0.90;;
49131;SDS011;35149;51.196;6.204;2022-08-02T15:39:33;1.05;;;0.65;;
49131;SDS011;35149;51.196;6.204;2022-08-02T15:42:04;1.58;;;0.55;;
49131;SDS011;35149;51.196;6.204;2022-08-02T15:44:34;2.03;;;0.50;;
49131;SDS011;35149;51.196;6.204;2022-08-02T15:47:01;8.57;;;1.10;;
49131;SDS011;35149;51.196;6.204;2022-08-02T15:49:35;3.97;;;0.60;;
49131;SDS011;35149;51.196;6.204;2022-08-02T15:52:09;0.85;;;0.70;;
49131;SDS011;35149;51.196;6.204;2022-08-02T15:54:41;1.40;;;0.45;;
49131;SDS011;35149;51.196;6.204;2022-08-02T15:57:08;2.83;;;0.68;;
49131;SDS011;35149;51.196;6.204;2022-08-02T15:59:37;0.98;;;0.60;;
49131;SDS011;35149;51.196;6.204;2022-08-02T16:02:07;1.85;;;0.68;;
49131;SDS011;35149;51.196;6.204;2022-08-02T16:04:36;1.45;;;0.50;;
49131;SDS011;35149;51.196;6.204;2022-08-02T16:07:03;0.65;;;0.65;;
49131;SDS011;35149;51.196;6.204;2022-08-02T16:09:30;1.48;;;0.60;;
49131;SDS011;35149;51.196;6.204;2022-08-02T16:11:57;2.13;;;0.63;;
49131;SDS011;35149;51.196;6.204;2022-08-02T16:14:24;4.15;;;0.52;;
49131;SDS011;35149;51.196;6.204;2022-08-02T16:16:51;0.75;;;0.57;;
49131;SDS011;35149;51.196;6.204;2022-08-02T16:19:27;1.85;;;0.60;;
49131;SDS011;35149;51.196;6.204;2022-08-02T16:22:13;0.98;;;0.60;;
49131;SDS011;35149;51.196;6.204;2022-08-02T16:24:42;1.95;;;0.70;;